Time;durP1;ratioP1;P1;durP2;ratioP2;P2;SDS_P1;SDS_P2;PMS_P1;PMS_P2;Temp;Humidity;BMP_temperature;BMP_pressure;BME280_temperature;BME280_humidity;BME280_pressure;Samples;Min_cycle;Max_cycle;Signal;HPM_P1;HPM_P2
2021/07/24 00:00:06;;;;;;;16.65;6.53;;;;;;;18.34;71.68;100850.13;5038222;28;20437;-68
2021/07/24 00:02:32;;;;;;;11.18;6.65;;;;;;;18.34;71.74;100855.38;5036563;28;20398;-68
2021/07/24 00:04:59;;;;;;;13.07;6.78;;;;;;;18.38;71.79;100844.69;5046853;28;20098;-68
2021/07/24 00:07:25;;;;;;;13.80;6.85;;;;;;;18.37;71.82;100846.47;5036280;28;20115;-67
2021/07/24 00:09:51;;;;;;;16.15;7.10;;;;;;;18.34;71.79;100847.47;5044972;28;20563;-68
2021/07/24 00:12:19;;;;;;;14.77;6.97;;;;;;;18.35;71.80;100853.63;5046466;28;20049;-68
2021/07/24 00:14:45;;;;;;;13.68;7.10;;;;;;;18.37;71.78;100843.84;5042552;28;20436;-68
2021/07/24 00:17:12;;;;;;;10.80;6.75;;;;;;;18.36;71.74;100839.53;5047691;28;20068;-68
2021/07/24 00:19:38;;;;;;;11.93;7.32;;;;;;;18.32;72.04;100846.69;5033716;28;20111;-68
2021/07/24 00:22:05;;;;;;;15.95;7.10;;;;;;;18.31;71.98;100836.25;5040240;28;20512;-68
2021/07/24 00:24:32;;;;;;;14.77;7.93;;;;;;;18.28;72.16;100825.88;5037749;28;20095;-68
2021/07/24 00:26:58;;;;;;;13.50;7.28;;;;;;;18.30;72.30;100827.50;5040647;28;20049;-69
2021/07/24 00:29:26;;;;;;;11.73;7.32;;;;;;;18.39;71.88;100815.66;5039337;28;20045;-68
2021/07/24 00:31:52;;;;;;;11.68;6.72;;;;;;;18.44;71.77;100813.66;5043753;28;20463;-68
2021/07/24 00:34:19;;;;;;;10.88;7.22;;;;;;;18.38;71.90;100805.19;5038998;28;20094;-68
2021/07/24 00:36:45;;;;;;;13.23;7.53;;;;;;;18.27;72.35;100803.97;5042695;28;20052;-68
2021/07/24 00:39:12;;;;;;;13.43;7.93;;;;;;;18.14;73.12;100800.22;5037333;28;20057;-68
2021/07/24 00:41:43;;;;;;;18.88;7.82;;;;;;;18.03;73.64;100798.16;5034560;28;20044;-68
2021/07/24 00:44:14;;;;;;;12.10;7.10;;;;;;;18.02;73.40;100804.34;5041250;28;20056;-68
2021/07/24 00:46:43;;;;;;;14.63;8.63;;;;;;;18.02;73.59;100812.22;5041313;28;20041;-68
2021/07/24 00:49:12;;;;;;;13.75;7.68;;;;;;;17.99;73.67;100815.00;5035525;28;20045;-68
2021/07/24 00:51:44;;;;;;;16.23;8.02;;;;;;;18.03;73.62;100814.78;5034828;28;20140;-68
2021/07/24 00:54:10;;;;;;;13.10;8.27;;;;;;;18.01;73.57;100813.16;5048775;28;20045;-68
2021/07/24 00:56:39;;;;;;;15.32;7.95;;;;;;;17.93;73.89;100816.13;5043575;28;20417;-68
2021/07/24 00:59:06;;;;;;;16.92;8.73;;;;;;;17.89;74.08;100819.84;5041473;28;20379;-69
2021/07/24 01:01:32;;;;;;;12.77;8.10;;;;;;;18.00;74.04;100812.31;5033985;28;20118;-69
2021/07/24 01:04:00;;;;;;;15.57;8.35;;;;;;;17.97;74.25;100814.22;5036777;28;20037;-68
2021/07/24 01:06:27;;;;;;;16.38;8.35;;;;;;;17.92;74.19;100814.41;5038181;28;20048;-68
2021/07/24 01:08:53;;;;;;;15.15;7.82;;;;;;;17.94;74.05;100809.09;5036545;28;20091;-68
2021/07/24 01:11:20;;;;;;;13.63;7.95;;;;;;;17.88;74.34;100812.88;5045421;28;20041;-68
2021/07/24 01:13:46;;;;;;;17.33;8.68;;;;;;;17.86;74.51;100804.19;5047080;28;20083;-68
2021/07/24 01:16:13;;;;;;;15.20;7.95;;;;;;;17.81;74.77;100801.78;5038508;28;20664;-68
2021/07/24 01:21:24;;;;;;;15.88;8.90;;;;;;;17.68;75.18;100796.28;5055487;22;20100;-66
2021/07/24 01:23:50;;;;;;;17.40;8.13;;;;;;;17.62;75.51;100791.28;5038334;28;20049;-66
2021/07/24 01:26:24;;;;;;;14.55;7.90;;;;;;;17.54;75.56;100799.56;5039319;28;20459;-67
2021/07/24 01:28:51;;;;;;;14.70;8.17;;;;;;;17.47;76.22;100792.03;5039521;28;20099;-66
2021/07/24 01:31:18;;;;;;;14.93;7.40;;;;;;;17.34;76.74;100797.03;5038328;28;20124;-66
2021/07/24 01:33:44;;;;;;;17.42;8.20;;;;;;;17.28;77.24;100797.31;5043234;28;20110;-67
2021/07/24 01:36:11;;;;;;;13.85;7.82;;;;;;;17.18;77.71;100794.25;5035757;28;20507;-66
2021/07/24 01:38:40;;;;;;;12.25;7.88;;;;;;;17.16;77.87;100796.09;5044115;28;20044;-66
2021/07/24 01:41:06;;;;;;;15.88;7.47;;;;;;;17.07;78.17;100792.97;5035923;28;20041;-67
2021/07/24 01:43:33;;;;;;;16.60;8.77;;;;;;;17.01;78.54;100790.63;5046398;28;20261;-67
2021/07/24 01:45:59;;;;;;;11.88;8.05;;;;;;;16.96;78.91;100787.34;5044437;28;20445;-66
2021/07/24 01:48:34;;;;;;;21.40;8.63;;;;;;;16.94;78.97;100784.81;5044434;28;20045;-67
2021/07/24 01:53:47;;;;;;;14.07;7.57;;;;;;;16.92;79.26;100783.97;5048866;28;20056;-66
2021/07/24 01:56:16;;;;;;;15.02;8.57;;;;;;;16.90;79.30;100787.59;5042792;28;20132;-66
2021/07/24 01:58:43;;;;;;;17.38;8.65;;;;;;;16.98;78.98;100784.63;5042191;28;20156;-67
2021/07/24 02:01:12;;;;;;;15.43;8.68;;;;;;;16.92;79.20;100780.47;5046239;28;20040;-66
2021/07/24 02:03:42;;;;;;;15.80;8.65;;;;;;;16.90;79.28;100790.22;5041308;28;20114;-66
2021/07/24 02:06:11;;;;;;;16.88;8.85;;;;;;;16.85;79.44;100784.31;5041125;28;20037;-66
2021/07/24 02:08:38;;;;;;;18.70;9.18;;;;;;;16.85;79.54;100779.94;5047927;28;20037;-66
2021/07/24 02:11:06;;;;;;;16.60;8.30;;;;;;;16.83;79.80;100783.53;5049688;28;20510;-66
2021/07/24 02:13:32;;;;;;;16.23;8.45;;;;;;;16.87;79.58;100783.31;5049070;28;20186;-66
2021/07/24 02:15:59;;;;;;;17.42;9.20;;;;;;;16.83;79.66;100787.03;5036374;28;20052;-66
2021/07/24 02:18:26;;;;;;;14.68;8.68;;;;;;;16.83;79.57;100786.16;5044705;28;20136;-67
2021/07/24 02:20:53;;;;;;;18.85;9.35;;;;;;;16.74;79.98;100780.41;5038956;28;20056;-67
2021/07/24 02:23:20;;;;;;;14.65;8.93;;;;;;;16.78;79.97;100783.72;5044907;28;20037;-66
2021/07/24 02:25:47;;;;;;;15.07;9.18;;;;;;;16.83;79.78;100773.03;5052368;28;20057;-66
2021/07/24 02:28:15;;;;;;;14.98;9.00;;;;;;;16.81;79.98;100772.25;5045999;28;20041;-67
2021/07/24 02:30:41;;;;;;;16.85;9.30;;;;;;;16.77;79.85;100761.00;5046028;28;20041;-66
2021/07/24 02:33:08;;;;;;;15.73;9.85;;;;;;;16.76;80.10;100756.72;5048941;28;20090;-68
2021/07/24 02:35:34;;;;;;;16.60;9.57;;;;;;;16.72;80.28;100757.75;5043833;28;20033;-67
2021/07/24 02:38:01;;;;;;;17.73;10.15;;;;;;;16.67;80.49;100757.97;5048298;28;20037;-66
2021/07/24 02:40:28;;;;;;;17.05;9.98;;;;;;;16.66;80.61;100768.53;5043563;28;20124;-66
2021/07/24 02:42:54;;;;;;;18.67;9.85;;;;;;;16.61;80.35;100758.25;5041831;28;20036;-66
2021/07/24 02:45:23;;;;;;;20.90;10.18;;;;;;;16.59;80.77;100742.53;5041204;28;20479;-66
2021/07/24 02:47:49;;;;;;;17.98;10.20;;;;;;;16.58;80.77;100732.09;5041994;28;20044;-66
2021/07/24 02:50:16;;;;;;;14.38;9.88;;;;;;;16.56;80.89;100732.19;5041175;28;20044;-66
2021/07/24 02:52:42;;;;;;;26.98;10.90;;;;;;;16.55;81.00;100729.59;5047532;28;20036;-67
2021/07/24 02:55:10;;;;;;;15.77;9.93;;;;;;;16.46;81.30;100721.22;5049079;28;20491;-66
2021/07/24 02:57:36;;;;;;;19.77;10.32;;;;;;;16.46;81.26;100713.34;5046075;28;20429;-66
2021/07/24 03:00:03;;;;;;;16.33;11.38;;;;;;;16.50;81.18;100702.72;5044453;28;20091;-67
2021/07/24 03:02:31;;;;;;;19.30;10.73;;;;;;;16.46;81.29;100689.72;5038285;28;20045;-66
2021/07/24 03:04:57;;;;;;;14.80;10.45;;;;;;;16.43;81.56;100684.59;5042840;28;20049;-67
2021/07/24 03:07:24;;;;;;;20.58;10.13;;;;;;;16.41;81.54;100678.59;5041516;28;20490;-67
2021/07/24 03:09:50;;;;;;;19.23;10.65;;;;;;;16.40;81.73;100673.38;5039068;28;20038;-66
2021/07/24 03:12:17;;;;;;;16.42;10.13;;;;;;;16.38;81.78;100673.47;5038726;28;20548;-66
2021/07/24 03:14:44;;;;;;;16.05;10.45;;;;;;;16.36;81.97;100683.16;5038093;28;20490;-67
2021/07/24 03:17:10;;;;;;;17.65;10.85;;;;;;;16.39;81.65;100682.19;5039793;28;20037;-66
2021/07/24 03:19:38;;;;;;;16.55;10.57;;;;;;;16.36;82.02;100683.16;5043147;28;20053;-66
2021/07/24 03:22:05;;;;;;;17.50;11.73;;;;;;;16.38;81.77;100683.09;5038009;28;20118;-66
2021/07/24 03:24:31;;;;;;;16.35;10.32;;;;;;;16.37;81.88;100684.03;5046231;28;20048;-66
2021/07/24 03:26:58;;;;;;;18.00;11.00;;;;;;;16.39;81.83;100690.06;5045404;28;20052;-66
2021/07/24 03:29:24;;;;;;;19.52;9.57;;;;;;;16.26;82.39;100677.50;5044609;28;20037;-66
2021/07/24 03:31:50;;;;;;;18.48;10.38;;;;;;;16.18;82.62;100679.56;5040993;28;20445;-66
2021/07/24 03:34:17;;;;;;;16.42;10.27;;;;;;;16.16;83.05;100681.44;5043436;28;20041;-67
2021/07/24 03:36:44;;;;;;;18.48;10.35;;;;;;;16.09;83.42;100675.59;5037432;28;20084;-67
2021/07/24 03:39:11;;;;;;;16.52;9.90;;;;;;;16.00;83.67;100674.22;5044717;28;20383;-67
2021/07/24 03:41:37;;;;;;;18.58;10.52;;;;;;;15.92;84.31;100671.06;5043457;28;20075;-67
2021/07/24 03:44:04;;;;;;;18.17;11.48;;;;;;;15.91;84.07;100672.00;5041008;28;20052;-66
2021/07/24 03:46:31;;;;;;;18.65;11.18;;;;;;;15.82;84.56;100661.84;5043555;28;20075;-67
2021/07/24 03:48:57;;;;;;;19.33;11.18;;;;;;;15.83;84.62;100663.56;5040619;28;20048;-67
2021/07/24 03:51:24;;;;;;;19.35;10.88;;;;;;;15.88;84.68;100658.16;5043760;28;20072;-67
2021/07/24 03:53:52;;;;;;;16.90;10.10;;;;;;;15.88;84.71;100666.88;5045056;28;20514;-67
2021/07/24 03:56:20;;;;;;;20.90;11.18;;;;;;;15.85;84.97;100662.59;5044421;28;20041;-67
2021/07/24 03:58:48;;;;;;;18.85;11.15;;;;;;;15.87;84.76;100667.81;5044139;28;20059;-67
2021/07/24 04:01:15;;;;;;;18.38;11.23;;;;;;;15.86;85.12;100666.09;5041667;28;20040;-66
2021/07/24 04:03:42;;;;;;;21.90;10.52;;;;;;;15.87;85.19;100666.94;5036959;28;20045;-67
2021/07/24 04:06:10;;;;;;;18.42;10.93;;;;;;;15.90;84.99;100662.41;5044348;28;20056;-67
2021/07/24 04:08:36;;;;;;;18.60;10.95;;;;;;;15.90;85.24;100666.81;5045527;28;20483;-67
2021/07/24 04:11:05;;;;;;;16.15;10.35;;;;;;;15.89;85.12;100663.31;5045231;28;20651;-67
2021/07/24 04:13:32;;;;;;;16.80;11.50;;;;;;;15.93;85.27;100666.66;5041873;28;20139;-68
2021/07/24 04:16:00;;;;;;;18.35;10.88;;;;;;;16.02;84.89;100671.50;5041054;28;20048;-67
2021/07/24 04:18:30;;;;;;;19.52;10.55;;;;;;;16.17;84.53;100665.63;5044544;28;20888;-67
2021/07/24 04:20:56;;;;;;;15.32;10.60;;;;;;;16.33;83.43;100664.94;5038618;28;20052;-67
2021/07/24 04:23:22;;;;;;;15.10;10.23;;;;;;;16.48;82.94;100666.88;5042526;28;20049;-66
2021/07/24 04:25:49;;;;;;;20.85;11.38;;;;;;;16.63;82.45;100669.72;5041462;28;20045;-66
2021/07/24 04:28:17;;;;;;;21.13;11.57;;;;;;;16.74;81.64;100672.69;5041170;28;20513;-66
2021/07/24 04:30:43;;;;;;;18.20;11.02;;;;;;;16.81;81.31;100669.81;5044580;28;20075;-66
2021/07/24 04:33:09;;;;;;;14.80;10.85;;;;;;;16.84;80.87;100669.66;5040074;28;20045;-66
2021/07/24 04:35:36;;;;;;;18.60;10.77;;;;;;;16.81;80.82;100661.94;5032429;28;20525;-67
2021/07/24 04:38:02;;;;;;;20.50;10.82;;;;;;;16.78;81.08;100661.16;5040718;28;20494;-67
2021/07/24 04:40:29;;;;;;;18.23;10.43;;;;;;;16.75;81.20;100656.03;5043564;28;20685;-67
2021/07/24 04:42:55;;;;;;;19.58;11.13;;;;;;;16.74;81.40;100658.72;5045903;28;20094;-67
2021/07/24 04:45:23;;;;;;;20.13;11.18;;;;;;;16.90;81.18;100666.75;5032325;28;20052;-67
2021/07/24 04:47:49;;;;;;;24.25;10.93;;;;;;;17.01;80.61;100664.50;5045188;28;20423;-67
2021/07/24 04:50:16;;;;;;;18.58;10.77;;;;;;;17.17;80.05;100659.34;5031978;28;20433;-67
2021/07/24 04:52:42;;;;;;;17.88;10.77;;;;;;;17.29;79.31;100660.53;5039537;28;20059;-67
2021/07/24 04:55:10;;;;;;;16.48;10.63;;;;;;;17.45;78.61;100665.03;5042672;28;20037;-67
2021/07/24 04:57:37;;;;;;;21.98;10.95;;;;;;;17.48;78.32;100665.72;5045697;28;20143;-67
2021/07/24 05:00:06;;;;;;;17.58;11.25;;;;;;;17.47;78.60;100668.44;5040076;28;20068;-67
2021/07/24 05:02:35;;;;;;;19.58;10.23;;;;;;;17.49;78.73;100669.22;5038799;28;20183;-68
2021/07/24 05:05:03;;;;;;;14.65;9.80;;;;;;;17.61;78.44;100660.75;5042588;28;20091;-67
2021/07/24 05:07:33;;;;;;;15.15;10.45;;;;;;;17.76;77.82;100658.25;5042428;28;20395;-67
2021/07/24 05:09:59;;;;;;;15.30;10.05;;;;;;;17.93;77.32;100666.13;5045106;28;20048;-67
2021/07/24 05:12:26;;;;;;;16.10;10.80;;;;;;;18.07;77.04;100669.88;5043891;28;20406;-67
2021/07/24 05:14:52;;;;;;;15.48;9.85;;;;;;;18.22;75.96;100668.22;5041996;28;20171;-67
2021/07/24 05:17:18;;;;;;;16.35;9.73;;;;;;;18.31;75.32;100657.19;5038881;28;20045;-67
2021/07/24 05:19:46;;;;;;;20.85;10.23;;;;;;;18.33;74.50;100664.06;5041204;28;20560;-68
2021/07/24 05:22:14;;;;;;;15.95;10.02;;;;;;;18.40;74.76;100671.66;5037482;28;20422;-67
2021/07/24 05:24:44;;;;;;;16.45;9.85;;;;;;;18.58;74.23;100668.03;5045927;28;20110;-67
2021/07/24 05:27:10;;;;;;;15.68;9.75;;;;;;;18.72;73.80;100655.88;5046060;28;20056;-67
2021/07/24 05:29:37;;;;;;;15.80;9.20;;;;;;;18.83;73.03;100655.31;5045784;28;20554;-67
2021/07/24 05:32:04;;;;;;;16.15;9.27;;;;;;;18.96;72.69;100653.75;5044370;28;20433;-67
2021/07/24 05:34:30;;;;;;;13.43;8.68;;;;;;;19.08;72.50;100645.13;5041734;28;20490;-67
2021/07/24 05:36:58;;;;;;;16.02;9.95;;;;;;;19.20;71.99;100640.09;5042663;28;20052;-68
2021/07/24 05:39:25;;;;;;;18.98;9.90;;;;;;;19.24;71.27;100647.72;5048494;28;20048;-67
2021/07/24 05:41:51;;;;;;;12.07;8.40;;;;;;;19.37;71.30;100645.22;5050349;28;20049;-67
2021/07/24 05:44:20;;;;;;;17.45;8.90;;;;;;;19.46;70.88;100643.88;5047619;28;20061;-68
2021/07/24 05:46:46;;;;;;;18.52;9.93;;;;;;;19.48;70.47;100636.72;5046208;28;20124;-67
2021/07/24 05:49:13;;;;;;;17.35;9.32;;;;;;;19.55;70.50;100635.41;5044124;28;20102;-67
2021/07/24 05:51:39;;;;;;;11.77;8.48;;;;;;;19.66;69.72;100626.00;5046407;28;20111;-67
2021/07/24 05:54:07;;;;;;;14.15;9.23;;;;;;;19.57;69.54;100627.38;5041671;28;20107;-67
2021/07/24 05:56:34;;;;;;;20.27;9.98;;;;;;;19.48;70.35;100622.66;5046346;28;20049;-66
2021/07/24 05:59:01;;;;;;;17.33;10.05;;;;;;;19.45;70.38;100626.34;5048868;28;20045;-67
2021/07/24 06:01:27;;;;;;;17.33;9.77;;;;;;;19.41;70.65;100620.41;5043299;28;20382;-67
2021/07/24 06:03:54;;;;;;;17.33;10.23;;;;;;;19.36;70.53;100619.81;5044072;28;20045;-67
2021/07/24 06:06:20;;;;;;;20.50;10.50;;;;;;;19.35;70.88;100630.44;5048009;28;20208;-67
2021/07/24 06:08:46;;;;;;;14.93;10.00;;;;;;;19.34;71.29;100626.97;5050072;28;20060;-67
2021/07/24 06:11:14;;;;;;;16.95;10.15;;;;;;;19.37;71.43;100626.78;5046362;28;20218;-67
2021/07/24 06:13:40;;;;;;;16.33;9.25;;;;;;;19.35;71.46;100618.13;5045835;28;20053;-67
2021/07/24 06:16:10;;;;;;;16.10;10.07;;;;;;;19.36;71.71;100619.81;5046977;28;20041;-67
2021/07/24 06:18:36;;;;;;;16.60;9.98;;;;;;;19.29;71.61;100610.53;5044788;28;20555;-67
2021/07/24 06:21:03;;;;;;;19.40;9.68;;;;;;;19.40;71.59;100609.94;5046119;28;20422;-66
2021/07/24 06:23:29;;;;;;;15.52;9.40;;;;;;;19.36;71.62;100605.78;5046382;28;20050;-67
2021/07/24 06:25:56;;;;;;;13.00;9.57;;;;;;;19.36;71.08;100608.41;5047589;28;20041;-67
2021/07/24 06:28:25;;;;;;;16.10;10.30;;;;;;;19.46;71.02;100600.81;5045242;28;20065;-67
2021/07/24 06:30:51;;;;;;;19.33;10.30;;;;;;;19.50;70.57;100592.63;5038940;28;20547;-67
2021/07/24 06:33:17;;;;;;;18.25;10.57;;;;;;;19.49;70.74;100604.13;5039667;28;20430;-67
2021/07/24 06:35:44;;;;;;;15.77;9.57;;;;;;;19.60;70.85;100602.66;5038474;28;20151;-67
2021/07/24 06:38:12;;;;;;;18.20;9.98;;;;;;;19.83;70.28;100610.00;5040885;28;20102;-68
2021/07/24 06:40:38;;;;;;;16.90;9.98;;;;;;;19.98;69.94;100589.78;5043071;28;20044;-67
2021/07/24 06:43:05;;;;;;;18.23;10.25;;;;;;;20.13;69.20;100588.00;5046167;28;20049;-67
2021/07/24 06:45:32;;;;;;;17.48;10.63;;;;;;;20.18;68.92;100580.66;5046256;28;20034;-67
2021/07/24 06:47:59;;;;;;;18.20;10.48;;;;;;;20.25;68.29;100570.56;5044195;28;20045;-67
2021/07/24 06:50:25;;;;;;;22.70;10.82;;;;;;;20.13;68.67;100564.22;5042365;28;20042;-67
2021/07/24 06:52:52;;;;;;;23.00;10.93;;;;;;;20.06;68.80;100565.56;5041183;28;20045;-68
2021/07/24 06:55:18;;;;;;;17.65;10.40;;;;;;;20.10;68.90;100560.94;5048011;28;20056;-67
2021/07/24 06:57:45;;;;;;;17.48;11.05;;;;;;;20.13;69.10;100547.53;5043795;28;20112;-67
2021/07/24 07:00:12;;;;;;;22.63;11.13;;;;;;;20.13;68.99;100550.19;5044156;28;20041;-67
2021/07/24 07:02:40;;;;;;;20.58;11.15;;;;;;;20.20;69.74;100551.50;5038047;28;20449;-67
2021/07/24 07:05:07;;;;;;;25.50;10.85;;;;;;;20.11;69.47;100547.66;5041512;28;20064;-67
2021/07/24 07:07:33;;;;;;;21.42;10.82;;;;;;;20.09;70.13;100546.91;5039584;28;20045;-67
2021/07/24 07:10:00;;;;;;;27.38;11.40;;;;;;;20.18;70.29;100546.31;5048331;28;20170;-67
2021/07/24 07:12:26;;;;;;;19.55;11.48;;;;;;;20.25;70.70;100538.84;5044530;28;20473;-67
2021/07/24 07:14:53;;;;;;;22.50;12.13;;;;;;;20.32;70.52;100534.00;5047725;28;20461;-66
2021/07/24 07:17:21;;;;;;;23.65;12.55;;;;;;;20.37;70.63;100533.72;5044414;28;20130;-69
2021/07/24 07:19:49;;;;;;;22.10;11.45;;;;;;;20.50;70.06;100540.78;5039289;28;20045;-66
2021/07/24 07:22:15;;;;;;;20.85;11.77;;;;;;;20.28;69.28;100533.34;5042132;28;20529;-66
2021/07/24 07:24:41;;;;;;;26.90;12.02;;;;;;;20.28;70.17;100527.25;5044937;28;20060;-67
2021/07/24 07:27:08;;;;;;;28.27;11.77;;;;;;;20.27;69.99;100523.75;5044110;28;20083;-68
2021/07/24 07:29:34;;;;;;;21.00;11.68;;;;;;;20.45;70.01;100523.53;5043964;28;20336;-68
2021/07/24 07:32:01;;;;;;;19.88;10.70;;;;;;;20.50;69.62;100517.00;5039311;28;20082;-65
2021/07/24 07:34:27;;;;;;;16.50;10.18;;;;;;;20.78;68.93;100522.28;5043747;28;20052;-66
2021/07/24 07:36:55;;;;;;;15.80;9.45;;;;;;;20.64;68.11;100523.16;5038720;28;20106;-67
2021/07/24 07:39:21;;;;;;;19.77;10.10;;;;;;;20.75;68.26;100518.06;5043418;28;20044;-70
2021/07/24 07:41:48;;;;;;;17.13;9.50;;;;;;;20.64;68.32;100510.81;5040883;28;20049;-69
2021/07/24 07:44:14;;;;;;;18.70;10.00;;;;;;;20.71;68.27;100505.97;5044831;28;20052;-70
2021/07/24 07:46:40;;;;;;;18.88;9.65;;;;;;;20.69;67.75;100507.00;5037208;28;20064;-69
2021/07/24 07:49:07;;;;;;;16.30;9.25;;;;;;;20.90;67.40;100507.44;5046197;28;20045;-71
2021/07/24 07:51:33;;;;;;;19.10;9.88;;;;;;;20.88;67.12;100507.53;5046207;28;20449;-70
2021/07/24 07:54:01;;;;;;;18.50;9.50;;;;;;;20.89;66.89;100505.75;5050699;28;20461;-71
2021/07/24 07:56:28;;;;;;;18.60;10.00;;;;;;;20.95;66.42;100506.19;5039887;28;20139;-69
2021/07/24 07:58:55;;;;;;;19.33;9.77;;;;;;;20.99;67.06;100493.59;5043020;28;20049;-69
2021/07/24 08:01:21;;;;;;;22.77;9.75;;;;;;;21.05;67.06;100487.06;5036374;28;20041;-69
2021/07/24 08:03:49;;;;;;;16.08;9.35;;;;;;;21.23;66.43;100484.94;5037327;28;20053;-69
2021/07/24 08:06:15;;;;;;;19.65;9.65;;;;;;;21.49;66.03;100472.56;5040455;28;20041;-69
2021/07/24 08:08:42;;;;;;;19.17;9.90;;;;;;;21.46;65.39;100461.34;5047030;28;20052;-72
2021/07/24 08:11:10;;;;;;;20.00;10.68;;;;;;;21.57;64.77;100459.63;5045786;28;20048;-70
2021/07/24 08:13:36;;;;;;;17.92;10.07;;;;;;;21.72;65.36;100456.91;5041094;28;20055;-70
2021/07/24 08:16:03;;;;;;;18.55;9.68;;;;;;;21.76;64.65;100457.53;5043929;28;20053;-72
2021/07/24 08:18:29;;;;;;;21.10;11.05;;;;;;;21.87;64.47;100460.25;5044748;28;20049;-70
2021/07/24 08:20:56;;;;;;;20.02;11.35;;;;;;;21.88;64.57;100472.56;5044003;28;20481;-70
2021/07/24 08:23:22;;;;;;;18.17;9.77;;;;;;;21.95;64.03;100471.16;5039787;28;20057;-70
2021/07/24 08:25:50;;;;;;;19.35;10.70;;;;;;;22.04;63.85;100472.31;5042978;28;20049;-69
2021/07/24 08:28:17;;;;;;;16.88;9.70;;;;;;;22.28;63.87;100482.06;5041219;28;20060;-69
2021/07/24 08:30:45;;;;;;;23.58;10.02;;;;;;;22.44;63.36;100487.97;5043101;28;20044;-70
2021/07/24 08:33:12;;;;;;;19.98;9.43;;;;;;;22.56;62.32;100491.53;5038236;28;20051;-68
2021/07/24 08:35:38;;;;;;;15.05;9.45;;;;;;;22.70;62.47;100495.78;5037780;28;20049;-69
2021/07/24 08:38:05;;;;;;;17.85;10.68;;;;;;;22.74;61.59;100494.63;5043421;28;20453;-70
2021/07/24 08:40:31;;;;;;;26.83;11.02;;;;;;;22.86;61.53;100499.97;5039089;28;20572;-70
2021/07/24 08:43:03;;;;;;;19.23;10.30;;;;;;;22.98;61.21;100499.88;5040166;28;20045;-69
2021/07/24 08:45:32;;;;;;;15.45;9.80;;;;;;;23.15;60.31;100489.78;5041567;28;20115;-71
2021/07/24 08:47:59;;;;;;;16.02;9.55;;;;;;;23.21;58.84;100489.34;5036586;28;20045;-68
2021/07/24 08:50:26;;;;;;;17.60;9.85;;;;;;;23.43;59.02;100488.53;5036635;28;20130;-68
2021/07/24 08:52:54;;;;;;;18.77;9.10;;;;;;;23.58;57.44;100502.44;5036148;28;20144;-69
2021/07/24 08:55:22;;;;;;;12.27;8.35;;;;;;;23.74;56.87;100507.38;5036434;28;20075;-70
2021/07/24 08:57:51;;;;;;;16.88;8.65;;;;;;;23.89;57.05;100509.78;5043531;28;20450;-69
2021/07/24 09:00:18;;;;;;;14.13;8.32;;;;;;;24.09;56.75;100505.59;5037356;28;20517;-68
2021/07/24 09:02:47;;;;;;;14.85;7.80;;;;;;;24.36;55.64;100514.94;5037695;28;20684;-70
2021/07/24 09:05:17;;;;;;;14.73;8.43;;;;;;;24.55;55.25;100508.13;5037996;28;20057;-69
2021/07/24 09:07:45;;;;;;;12.55;7.63;;;;;;;24.69;55.44;100507.88;5032316;28;20045;-68
2021/07/24 09:13:33;;;;;;;12.35;7.70;;;;;;;25.04;55.41;100498.72;5007595;28;20133;-69
2021/07/24 09:16:00;;;;;;;17.42;8.75;;;;;;;25.14;54.49;100496.97;5012296;28;20053;-72
2021/07/24 09:18:29;;;;;;;12.63;7.85;;;;;;;25.11;54.01;100507.88;5022701;28;20053;-71
2021/07/24 09:20:56;;;;;;;13.63;8.27;;;;;;;24.98;54.54;100499.25;5022549;28;20103;-71
2021/07/24 09:23:27;;;;;;;12.68;7.82;;;;;;;24.90;55.16;100493.75;5016913;28;20053;-71
2021/07/24 09:25:54;;;;;;;15.05;8.68;;;;;;;24.81;55.04;100482.88;5023647;28;20140;-67
2021/07/24 09:28:20;;;;;;;17.88;8.85;;;;;;;24.71;55.76;100479.31;5019363;28;20057;-72
2021/07/24 09:30:47;;;;;;;13.90;7.80;;;;;;;24.61;56.16;100467.72;5017044;28;20496;-68
2021/07/24 09:33:15;;;;;;;15.38;8.45;;;;;;;24.20;56.83;100464.84;5021349;28;20517;-68
2021/07/24 09:35:44;;;;;;;12.80;8.35;;;;;;;24.12;57.53;100484.06;5014674;28;20053;-69
2021/07/24 09:38:16;;;;;;;15.85;8.05;;;;;;;24.12;57.34;100492.03;5016579;28;20053;-68
2021/07/24 09:40:44;;;;;;;15.70;9.00;;;;;;;24.18;57.23;100511.94;5022613;28;20049;-71
2021/07/24 09:43:35;;;;;;;15.20;7.85;;;;;;;24.43;57.02;100518.78;5020839;28;20245;-69
2021/07/24 09:46:12;;;;;;;15.68;7.65;;;;;;;24.61;56.38;100511.13;5019483;28;20046;-70
2021/07/24 09:48:40;;;;;;;11.85;8.32;;;;;;;24.74;56.38;100508.31;5017676;28;20146;-69
2021/07/24 09:51:08;;;;;;;13.77;7.82;;;;;;;24.90;55.30;100502.56;5019599;28;20510;-69
2021/07/24 09:53:35;;;;;;;14.55;8.27;;;;;;;24.77;55.16;100501.88;5022406;28;20072;-69
2021/07/24 09:56:02;;;;;;;15.38;8.43;;;;;;;24.72;56.02;100494.28;5019641;28;20069;-69
2021/07/24 09:58:28;;;;;;;14.85;8.57;;;;;;;24.71;56.09;100499.75;5019497;28;20050;-67
2021/07/24 10:01:02;;;;;;;11.80;8.15;;;;;;;24.77;55.97;100508.06;5019896;28;20045;-68
2021/07/24 10:03:29;;;;;;;15.70;8.03;;;;;;;24.82;56.15;100508.50;5014808;28;20481;-68
2021/07/24 10:05:57;;;;;;;13.77;7.95;;;;;;;24.91;56.17;100506.06;5013795;28;20080;-71
2021/07/24 10:08:26;;;;;;;16.60;8.65;;;;;;;24.83;55.61;100496.91;5024275;28;20046;-70
2021/07/24 10:10:52;;;;;;;17.90;8.48;;;;;;;24.89;55.68;100503.53;5025195;28;20103;-68
2021/07/24 10:13:19;;;;;;;15.60;8.52;;;;;;;24.92;55.74;100505.94;5022105;28;20068;-70
2021/07/24 10:15:46;;;;;;;17.48;8.38;;;;;;;25.02;55.30;100507.81;5019217;28;20049;-68
2021/07/24 10:18:14;;;;;;;14.63;8.00;;;;;;;25.03;55.72;100506.84;5023995;28;20100;-69
2021/07/24 10:20:42;;;;;;;14.55;8.90;;;;;;;25.12;55.81;100514.06;5023882;28;20054;-68
2021/07/24 10:23:10;;;;;;;15.70;8.30;;;;;;;25.20;55.31;100508.09;5023084;28;20057;-69
2021/07/24 10:25:48;;;;;;;14.82;8.80;;;;;;;25.42;54.40;100510.63;5019589;28;20068;-70
2021/07/24 10:28:22;;;;;;;14.95;8.52;;;;;;;25.28;55.59;100508.28;5017473;28;20133;-70
2021/07/24 10:30:51;;;;;;;16.95;9.20;;;;;;;25.25;55.50;100508.53;5024264;28;20118;-69
2021/07/24 10:33:31;;;;;;;16.63;9.45;;;;;;;25.27;55.16;100509.25;5019877;28;20075;-70
2021/07/24 10:36:14;;;;;;;15.68;8.70;;;;;;;25.37;55.36;100511.94;5018141;28;20049;-69
2021/07/24 10:38:58;;;;;;;16.70;8.93;;;;;;;25.39;55.04;100505.53;5024351;28;20065;-68
2021/07/24 10:41:48;;;;;;;13.63;9.60;;;;;;;25.45;54.11;100515.69;5018446;28;20111;-68
2021/07/24 10:44:17;;;;;;;17.55;8.98;;;;;;;25.51;53.65;100519.66;5024067;28;20050;-70
2021/07/24 10:47:11;;;;;;;13.98;9.05;;;;;;;25.37;54.42;100511.94;5027123;28;20442;-67
2021/07/24 10:50:00;;;;;;;16.02;8.98;;;;;;;25.34;54.14;100507.75;5015779;28;20049;-66
2021/07/24 10:52:45;;;;;;;17.77;8.93;;;;;;;25.27;53.42;100510.09;5016864;28;20069;-64
2021/07/24 10:55:15;;;;;;;13.38;9.50;;;;;;;25.17;53.54;100519.81;5016206;28;20057;-66
2021/07/24 10:58:08;;;;;;;16.00;9.23;;;;;;;25.09;54.40;100525.81;5020917;28;20046;-66
2021/07/24 11:00:40;;;;;;;16.95;10.10;;;;;;;25.03;54.32;100528.97;5018254;28;21147;-67
2021/07/24 11:03:46;;;;;;;14.02;9.85;;;;;;;24.88;54.55;100531.09;5018495;28;20401;-68
2021/07/24 11:06:22;;;;;;;19.65;9.98;;;;;;;24.78;55.09;100527.53;5024325;28;20042;-67
2021/07/24 11:09:02;;;;;;;18.80;10.13;;;;;;;24.71;55.29;100524.50;5021670;28;20075;-68
2021/07/24 11:11:45;;;;;;;15.20;9.35;;;;;;;24.48;55.96;100535.22;5023544;28;20042;-67
2021/07/24 11:14:56;;;;;;;14.75;8.82;;;;;;;24.36;56.65;100531.72;5021332;28;20068;-67
2021/07/24 11:17:25;;;;;;;13.25;9.77;;;;;;;24.32;56.30;100537.41;5020218;28;20045;-67
2021/07/24 11:20:29;;;;;;;15.80;9.80;;;;;;;24.20;57.17;100547.22;5024916;28;20403;-67
2021/07/24 11:23:05;;;;;;;19.10;10.20;;;;;;;24.17;57.73;100550.13;5021220;28;20045;-68
2021/07/24 11:25:34;;;;;;;19.63;10.57;;;;;;;24.14;57.84;100540.59;5022178;28;20449;-68
2021/07/24 11:28:18;;;;;;;17.55;10.05;;;;;;;24.12;58.33;100542.50;5011578;28;20132;-73